sensor_id;sensor_type;location;lat;lon;timestamp;P1;durP1;ratioP1;P2;durP2;ratioP2
7255;SDS011;3669;49.200;9.242;2024-01-15T00:01:01;33.10;;;21.57;;
7255;SDS011;3669;49.200;9.242;2024-01-15T00:03:29;31.97;;;21.40;;
7255;SDS011;3669;49.200;9.242;2024-01-15T00:05:56;32.70;;;22.30;;
7255;SDS011;3669;49.200;9.242;2024-01-15T00:08:23;35.97;;;23.17;;
7255;SDS011;3669;49.200;9.242;2024-01-15T00:10:50;33.17;;;21.23;;
7255;SDS011;3669;49.200;9.242;2024-01-15T00:13:17;34.70;;;23.50;;
7255;SDS011;3669;49.200;9.242;2024-01-15T00:15:44;35.30;;;23.33;;
7255;SDS011;3669;49.200;9.242;2024-01-15T00:18:11;32.33;;;21.90;;
7255;SDS011;3669;49.200;9.242;2024-01-15T00:20:38;32.67;;;20.97;;
7255;SDS011;3669;49.200;9.242;2024-01-15T00:23:05;32.77;;;21.73;;
7255;SDS011;3669;49.200;9.242;2024-01-15T00:25:32;35.20;;;22.33;;
7255;SDS011;3669;49.200;9.242;2024-01-15T00:28:00;32.57;;;22.20;;
7255;SDS011;3669;49.200;9.242;2024-01-15T00:30:27;28.90;;;20.73;;
7255;SDS011;3669;49.200;9.242;2024-01-15T00:32:54;36.43;;;21.90;;
7255;SDS011;3669;49.200;9.242;2024-01-15T00:35:21;35.63;;;22.97;;
7255;SDS011;3669;49.200;9.242;2024-01-15T00:37:49;34.23;;;22.50;;
7255;SDS011;3669;49.200;9.242;2024-01-15T00:40:16;35.40;;;29.27;;
7255;SDS011;3669;49.200;9.242;2024-01-15T00:42:42;32.27;;;21.03;;
7255;SDS011;3669;49.200;9.242;2024-01-15T00:45:09;31.53;;;20.37;;
7255;SDS011;3669;49.200;9.242;2024-01-15T00:47:37;32.47;;;21.33;;
7255;SDS011;3669;49.200;9.242;2024-01-15T00:50:04;33.10;;;21.23;;
7255;SDS011;3669;49.200;9.242;2024-01-15T00:52:31;32.00;;;28.20;;
7255;SDS011;3669;49.200;9.242;2024-01-15T00:54:58;32.27;;;21.33;;
7255;SDS011;3669;49.200;9.242;2024-01-15T00:57:25;29.80;;;21.63;;
7255;SDS011;3669;49.200;9.242;2024-01-15T00:59:51;29.43;;;20.27;;
7255;SDS011;3669;49.200;9.242;2024-01-15T01:02:19;32.33;;;20.13;;
7255;SDS011;3669;49.200;9.242;2024-01-15T01:04:46;31.17;;;20.27;;
7255;SDS011;3669;49.200;9.242;2024-01-15T01:07:13;32.33;;;19.70;;
7255;SDS011;3669;49.200;9.242;2024-01-15T01:09:40;29.13;;;19.87;;
7255;SDS011;3669;49.200;9.242;2024-01-15T01:12:07;29.30;;;20.07;;
7255;SDS011;3669;49.200;9.242;2024-01-15T01:14:34;30.30;;;20.30;;
7255;SDS011;3669;49.200;9.242;2024-01-15T01:17:01;30.13;;;20.30;;
7255;SDS011;3669;49.200;9.242;2024-01-15T01:19:28;27.60;;;19.37;;
7255;SDS011;3669;49.200;9.242;2024-01-15T01:21:56;28.37;;;18.87;;
7255;SDS011;3669;49.200;9.242;2024-01-15T01:24:23;29.13;;;20.03;;
7255;SDS011;3669;49.200;9.242;2024-01-15T01:26:50;30.43;;;20.03;;
7255;SDS011;3669;49.200;9.242;2024-01-15T01:29:17;36.30;;;30.20;;
7255;SDS011;3669;49.200;9.242;2024-01-15T01:31:44;49.30;;;44.90;;
7255;SDS011;3669;49.200;9.242;2024-01-15T01:34:13;40.67;;;36.80;;
7255;SDS011;3669;49.200;9.242;2024-01-15T01:36:41;48.50;;;44.13;;
7255;SDS011;3669;49.200;9.242;2024-01-15T01:39:08;44.57;;;40.50;;
7255;SDS011;3669;49.200;9.242;2024-01-15T01:41:35;41.50;;;37.53;;
7255;SDS011;3669;49.200;9.242;2024-01-15T01:44:02;39.63;;;35.73;;
7255;SDS011;3669;49.200;9.242;2024-01-15T01:46:29;37.27;;;33.40;;
7255;SDS011;3669;49.200;9.242;2024-01-15T01:48:56;32.67;;;25.17;;
7255;SDS011;3669;49.200;9.242;2024-01-15T01:51:27;27.97;;;18.53;;
7255;SDS011;3669;49.200;9.242;2024-01-15T01:53:54;30.20;;;20.03;;
7255;SDS011;3669;49.200;9.242;2024-01-15T01:56:21;28.63;;;20.30;;
7255;SDS011;3669;49.200;9.242;2024-01-15T01:58:48;28.57;;;19.07;;
7255;SDS011;3669;49.200;9.242;2024-01-15T02:01:15;26.93;;;18.23;;
7255;SDS011;3669;49.200;9.242;2024-01-15T02:03:42;30.03;;;18.47;;
7255;SDS011;3669;49.200;9.242;2024-01-15T02:06:09;29.40;;;20.10;;
7255;SDS011;3669;49.200;9.242;2024-01-15T02:08:36;27.80;;;18.63;;
7255;SDS011;3669;49.200;9.242;2024-01-15T02:11:04;25.97;;;17.33;;
7255;SDS011;3669;49.200;9.242;2024-01-15T02:13:31;24.97;;;18.57;;
7255;SDS011;3669;49.200;9.242;2024-01-15T02:15:58;23.93;;;17.50;;
7255;SDS011;3669;49.200;9.242;2024-01-15T02:18:25;26.97;;;17.77;;
7255;SDS011;3669;49.200;9.242;2024-01-15T02:20:52;29.60;;;19.13;;
7255;SDS011;3669;49.200;9.242;2024-01-15T02:23:19;27.10;;;17.80;;
7255;SDS011;3669;49.200;9.242;2024-01-15T02:25:46;26.23;;;17.47;;
7255;SDS011;3669;49.200;9.242;2024-01-15T02:28:14;26.27;;;18.10;;
7255;SDS011;3669;49.200;9.242;2024-01-15T02:30:42;27.77;;;18.30;;
7255;SDS011;3669;49.200;9.242;2024-01-15T02:33:09;25.40;;;16.80;;
7255;SDS011;3669;49.200;9.242;2024-01-15T02:35:37;25.23;;;17.30;;
7255;SDS011;3669;49.200;9.242;2024-01-15T02:38:04;23.53;;;16.17;;
7255;SDS011;3669;49.200;9.242;2024-01-15T02:40:32;24.47;;;17.03;;
7255;SDS011;3669;49.200;9.242;2024-01-15T02:42:59;22.57;;;16.00;;
7255;SDS011;3669;49.200;9.242;2024-01-15T02:45:26;21.90;;;16.23;;
7255;SDS011;3669;49.200;9.242;2024-01-15T02:47:53;27.27;;;17.93;;
7255;SDS011;3669;49.200;9.242;2024-01-15T02:50:21;25.97;;;17.40;;
7255;SDS011;3669;49.200;9.242;2024-01-15T02:52:48;25.27;;;17.93;;
7255;SDS011;3669;49.200;9.242;2024-01-15T02:55:15;25.33;;;16.70;;
7255;SDS011;3669;49.200;9.242;2024-01-15T02:57:42;25.20;;;16.77;;
7255;SDS011;3669;49.200;9.242;2024-01-15T03:00:09;21.87;;;16.07;;
7255;SDS011;3669;49.200;9.242;2024-01-15T03:02:37;25.97;;;17.67;;
7255;SDS011;3669;49.200;9.242;2024-01-15T03:05:11;22.57;;;16.57;;
7255;SDS011;3669;49.200;9.242;2024-01-15T03:07:38;20.43;;;15.83;;
7255;SDS011;3669;49.200;9.242;2024-01-15T03:10:06;21.93;;;16.47;;
7255;SDS011;3669;49.200;9.242;2024-01-15T03:12:33;23.40;;;15.93;;
7255;SDS011;3669;49.200;9.242;2024-01-15T03:15:00;22.67;;;15.73;;
7255;SDS011;3669;49.200;9.242;2024-01-15T03:17:28;27.80;;;18.23;;
7255;SDS011;3669;49.200;9.242;2024-01-15T03:19:55;22.73;;;17.57;;
7255;SDS011;3669;49.200;9.242;2024-01-15T03:22:22;21.60;;;16.50;;
7255;SDS011;3669;49.200;9.242;2024-01-15T03:24:49;19.80;;;14.33;;
7255;SDS011;3669;49.200;9.242;2024-01-15T03:27:16;23.90;;;16.37;;
7255;SDS011;3669;49.200;9.242;2024-01-15T03:29:43;24.10;;;18.00;;
7255;SDS011;3669;49.200;9.242;2024-01-15T03:32:10;24.93;;;17.33;;
7255;SDS011;3669;49.200;9.242;2024-01-15T03:34:37;21.73;;;17.10;;
7255;SDS011;3669;49.200;9.242;2024-01-15T03:37:04;22.53;;;18.07;;
7255;SDS011;3669;49.200;9.242;2024-01-15T03:39:31;27.43;;;24.57;;
7255;SDS011;3669;49.200;9.242;2024-01-15T03:41:58;33.57;;;30.60;;
7255;SDS011;3669;49.200;9.242;2024-01-15T03:44:25;51.10;;;47.10;;
7255;SDS011;3669;49.200;9.242;2024-01-15T03:46:52;43.77;;;40.20;;
7255;SDS011;3669;49.200;9.242;2024-01-15T03:49:19;40.23;;;36.73;;
7255;SDS011;3669;49.200;9.242;2024-01-15T03:51:46;35.63;;;32.33;;
7255;SDS011;3669;49.200;9.242;2024-01-15T03:54:13;29.03;;;25.87;;
7255;SDS011;3669;49.200;9.242;2024-01-15T03:56:40;26.03;;;22.33;;
7255;SDS011;3669;49.200;9.242;2024-01-15T03:59:07;23.83;;;17.50;;
7255;SDS011;3669;49.200;9.242;2024-01-15T04:01:34;27.73;;;18.47;;
7255;SDS011;3669;49.200;9.242;2024-01-15T04:04:02;20.97;;;15.10;;
7255;SDS011;3669;49.200;9.242;2024-01-15T04:06:29;26.17;;;16.37;;
7255;SDS011;3669;49.200;9.242;2024-01-15T04:08:56;29.10;;;18.27;;
7255;SDS011;3669;49.200;9.242;2024-01-15T04:11:23;22.93;;;15.97;;
7255;SDS011;3669;49.200;9.242;2024-01-15T04:13:50;25.00;;;17.20;;
7255;SDS011;3669;49.200;9.242;2024-01-15T04:16:17;24.23;;;17.00;;
7255;SDS011;3669;49.200;9.242;2024-01-15T04:18:44;24.67;;;18.00;;
7255;SDS011;3669;49.200;9.242;2024-01-15T04:21:11;22.80;;;16.87;;
7255;SDS011;3669;49.200;9.242;2024-01-15T04:23:39;26.70;;;18.47;;
7255;SDS011;3669;49.200;9.242;2024-01-15T04:26:06;26.07;;;17.87;;
7255;SDS011;3669;49.200;9.242;2024-01-15T04:28:33;25.40;;;17.87;;
7255;SDS011;3669;49.200;9.242;2024-01-15T04:31:00;24.00;;;16.97;;
7255;SDS011;3669;49.200;9.242;2024-01-15T04:33:27;22.47;;;17.23;;
7255;SDS011;3669;49.200;9.242;2024-01-15T04:35:54;25.13;;;18.40;;
7255;SDS011;3669;49.200;9.242;2024-01-15T04:38:21;23.67;;;17.80;;
7255;SDS011;3669;49.200;9.242;2024-01-15T04:40:48;22.67;;;16.00;;
7255;SDS011;3669;49.200;9.242;2024-01-15T04:43:15;25.40;;;18.10;;
7255;SDS011;3669;49.200;9.242;2024-01-15T04:45:43;24.27;;;17.27;;
7255;SDS011;3669;49.200;9.242;2024-01-15T04:48:10;23.73;;;17.13;;
7255;SDS011;3669;49.200;9.242;2024-01-15T04:50:37;24.33;;;17.20;;
7255;SDS011;3669;49.200;9.242;2024-01-15T04:53:04;27.23;;;17.53;;
7255;SDS011;3669;49.200;9.242;2024-01-15T04:55:31;21.70;;;16.43;;
7255;SDS011;3669;49.200;9.242;2024-01-15T04:57:58;23.23;;;16.80;;
7255;SDS011;3669;49.200;9.242;2024-01-15T05:00:25;26.53;;;17.90;;
7255;SDS011;3669;49.200;9.242;2024-01-15T05:02:52;23.37;;;15.67;;
7255;SDS011;3669;49.200;9.242;2024-01-15T05:05:19;23.90;;;16.53;;
7255;SDS011;3669;49.200;9.242;2024-01-15T05:07:46;23.70;;;16.67;;
7255;SDS011;3669;49.200;9.242;2024-01-15T05:10:13;25.00;;;17.87;;
7255;SDS011;3669;49.200;9.242;2024-01-15T05:12:40;26.57;;;17.97;;
7255;SDS011;3669;49.200;9.242;2024-01-15T05:15:07;24.07;;;16.63;;
7255;SDS011;3669;49.200;9.242;2024-01-15T05:17:35;23.73;;;17.50;;
7255;SDS011;3669;49.200;9.242;2024-01-15T05:20:02;23.33;;;16.27;;
7255;SDS011;3669;49.200;9.242;2024-01-15T05:22:30;22.70;;;17.37;;
7255;SDS011;3669;49.200;9.242;2024-01-15T05:24:57;22.47;;;16.10;;
7255;SDS011;3669;49.200;9.242;2024-01-15T05:27:24;24.73;;;17.73;;
7255;SDS011;3669;49.200;9.242;2024-01-15T05:29:51;25.37;;;17.60;;
7255;SDS011;3669;49.200;9.242;2024-01-15T05:32:18;24.03;;;15.93;;
7255;SDS011;3669;49.200;9.242;2024-01-15T05:34:45;23.30;;;16.37;;
7255;SDS011;3669;49.200;9.242;2024-01-15T05:37:12;26.43;;;17.17;;
7255;SDS011;3669;49.200;9.242;2024-01-15T05:39:39;29.07;;;18.10;;
7255;SDS011;3669;49.200;9.242;2024-01-15T05:42:05;22.80;;;16.93;;
7255;SDS011;3669;49.200;9.242;2024-01-15T05:44:32;23.53;;;17.70;;
7255;SDS011;3669;49.200;9.242;2024-01-15T05:46:59;31.30;;;28.13;;
7255;SDS011;3669;49.200;9.242;2024-01-15T05:49:26;37.63;;;34.17;;
7255;SDS011;3669;49.200;9.242;2024-01-15T05:51:53;31.37;;;28.40;;
7255;SDS011;3669;49.200;9.242;2024-01-15T05:54:20;46.03;;;42.20;;
7255;SDS011;3669;49.200;9.242;2024-01-15T05:56:47;43.70;;;40.07;;
7255;SDS011;3669;49.200;9.242;2024-01-15T05:59:14;30.00;;;26.70;;
7255;SDS011;3669;49.200;9.242;2024-01-15T06:01:40;26.50;;;23.73;;
7255;SDS011;3669;49.200;9.242;2024-01-15T06:04:07;22.90;;;17.57;;
7255;SDS011;3669;49.200;9.242;2024-01-15T06:06:34;22.83;;;16.67;;
7255;SDS011;3669;49.200;9.242;2024-01-15T06:09:01;23.33;;;17.67;;
7255;SDS011;3669;49.200;9.242;2024-01-15T06:11:31;25.37;;;17.43;;
7255;SDS011;3669;49.200;9.242;2024-01-15T06:13:58;24.27;;;17.07;;
7255;SDS011;3669;49.200;9.242;2024-01-15T06:16:28;24.17;;;16.00;;
7255;SDS011;3669;49.200;9.242;2024-01-15T06:18:55;22.90;;;17.27;;
7255;SDS011;3669;49.200;9.242;2024-01-15T06:21:22;22.00;;;16.97;;
7255;SDS011;3669;49.200;9.242;2024-01-15T06:23:49;23.42;;;17.40;;
7255;SDS011;3669;49.200;9.242;2024-01-15T06:26:16;19.70;;;16.43;;
7255;SDS011;3669;49.200;9.242;2024-01-15T06:28:43;24.27;;;17.07;;
7255;SDS011;3669;49.200;9.242;2024-01-15T06:31:10;26.03;;;18.40;;
7255;SDS011;3669;49.200;9.242;2024-01-15T06:33:37;24.40;;;17.10;;
7255;SDS011;3669;49.200;9.242;2024-01-15T06:36:04;21.30;;;16.47;;
7255;SDS011;3669;49.200;9.242;2024-01-15T06:38:31;22.23;;;16.40;;
7255;SDS011;3669;49.200;9.242;2024-01-15T06:40:58;22.57;;;15.83;;
7255;SDS011;3669;49.200;9.242;2024-01-15T06:43:26;20.00;;;16.20;;
7255;SDS011;3669;49.200;9.242;2024-01-15T06:45:53;25.57;;;17.03;;
7255;SDS011;3669;49.200;9.242;2024-01-15T06:48:20;23.47;;;16.47;;
7255;SDS011;3669;49.200;9.242;2024-01-15T06:50:46;23.40;;;16.27;;
7255;SDS011;3669;49.200;9.242;2024-01-15T06:53:14;21.43;;;16.43;;
7255;SDS011;3669;49.200;9.242;2024-01-15T06:55:41;18.73;;;14.80;;
7255;SDS011;3669;49.200;9.242;2024-01-15T06:58:08;20.37;;;16.17;;
7255;SDS011;3669;49.200;9.242;2024-01-15T07:00:35;20.67;;;14.87;;
7255;SDS011;3669;49.200;9.242;2024-01-15T07:03:02;19.20;;;16.17;;
7255;SDS011;3669;49.200;9.242;2024-01-15T07:05:29;21.60;;;17.50;;
7255;SDS011;3669;49.200;9.242;2024-01-15T07:07:56;24.13;;;16.40;;
7255;SDS011;3669;49.200;9.242;2024-01-15T07:10:23;18.80;;;16.00;;
7255;SDS011;3669;49.200;9.242;2024-01-15T07:12:50;20.57;;;15.50;;
7255;SDS011;3669;49.200;9.242;2024-01-15T07:15:17;17.93;;;14.87;;
7255;SDS011;3669;49.200;9.242;2024-01-15T07:17:44;20.20;;;16.50;;
7255;SDS011;3669;49.200;9.242;2024-01-15T07:20:11;20.97;;;16.10;;
7255;SDS011;3669;49.200;9.242;2024-01-15T07:22:38;23.00;;;16.90;;
7255;SDS011;3669;49.200;9.242;2024-01-15T07:25:05;21.00;;;14.83;;
7255;SDS011;3669;49.200;9.242;2024-01-15T07:27:32;22.07;;;16.13;;
7255;SDS011;3669;49.200;9.242;2024-01-15T07:29:59;21.47;;;16.07;;
7255;SDS011;3669;49.200;9.242;2024-01-15T07:32:26;19.90;;;16.40;;
7255;SDS011;3669;49.200;9.242;2024-01-15T07:34:53;21.03;;;16.70;;
7255;SDS011;3669;49.200;9.242;2024-01-15T07:37:21;22.60;;;16.77;;
7255;SDS011;3669;49.200;9.242;2024-01-15T07:39:49;23.77;;;16.00;;
7255;SDS011;3669;49.200;9.242;2024-01-15T07:42:16;22.67;;;16.67;;
7255;SDS011;3669;49.200;9.242;2024-01-15T07:44:43;22.80;;;17.37;;
7255;SDS011;3669;49.200;9.242;2024-01-15T07:47:10;22.73;;;16.83;;
7255;SDS011;3669;49.200;9.242;2024-01-15T07:49:37;20.93;;;17.13;;
7255;SDS011;3669;49.200;9.242;2024-01-15T07:52:05;23.23;;;16.80;;
7255;SDS011;3669;49.200;9.242;2024-01-15T07:54:32;19.40;;;16.33;;
7255;SDS011;3669;49.200;9.242;2024-01-15T07:57:00;21.80;;;16.17;;
7255;SDS011;3669;49.200;9.242;2024-01-15T07:59:28;20.30;;;15.53;;
7255;SDS011;3669;49.200;9.242;2024-01-15T08:01:58;20.73;;;14.67;;
7255;SDS011;3669;49.200;9.242;2024-01-15T08:04:25;21.73;;;15.73;;
7255;SDS011;3669;49.200;9.242;2024-01-15T08:06:52;20.50;;;15.80;;
7255;SDS011;3669;49.200;9.242;2024-01-15T08:09:19;22.97;;;19.37;;
7255;SDS011;3669;49.200;9.242;2024-01-15T08:11:46;40.73;;;36.93;;
7255;SDS011;3669;49.200;9.242;2024-01-15T08:14:13;48.87;;;44.87;;
7255;SDS011;3669;49.200;9.242;2024-01-15T08:16:40;45.30;;;41.67;;
7255;SDS011;3669;49.200;9.242;2024-01-15T08:19:07;48.27;;;44.50;;
7255;SDS011;3669;49.200;9.242;2024-01-15T08:21:34;48.43;;;44.70;;
7255;SDS011;3669;49.200;9.242;2024-01-15T08:24:01;24.63;;;22.23;;
7255;SDS011;3669;49.200;9.242;2024-01-15T08:26:28;24.07;;;18.37;;
7255;SDS011;3669;49.200;9.242;2024-01-15T08:28:55;23.80;;;16.53;;
7255;SDS011;3669;49.200;9.242;2024-01-15T08:31:22;21.37;;;17.57;;
7255;SDS011;3669;49.200;9.242;2024-01-15T08:33:49;22.63;;;16.33;;
7255;SDS011;3669;49.200;9.242;2024-01-15T08:36:16;23.53;;;16.50;;
7255;SDS011;3669;49.200;9.242;2024-01-15T08:38:43;24.10;;;17.13;;
7255;SDS011;3669;49.200;9.242;2024-01-15T08:41:10;21.83;;;16.80;;
7255;SDS011;3669;49.200;9.242;2024-01-15T08:43:37;27.60;;;16.27;;
7255;SDS011;3669;49.200;9.242;2024-01-15T08:46:05;21.90;;;15.77;;
7255;SDS011;3669;49.200;9.242;2024-01-15T08:48:32;20.17;;;16.73;;
7255;SDS011;3669;49.200;9.242;2024-01-15T08:51:00;20.40;;;15.83;;
7255;SDS011;3669;49.200;9.242;2024-01-15T08:53:27;20.90;;;16.30;;
7255;SDS011;3669;49.200;9.242;2024-01-15T08:55:54;22.47;;;16.80;;
7255;SDS011;3669;49.200;9.242;2024-01-15T08:58:22;22.33;;;16.73;;
7255;SDS011;3669;49.200;9.242;2024-01-15T09:00:50;22.53;;;16.77;;
7255;SDS011;3669;49.200;9.242;2024-01-15T09:03:17;22.90;;;17.20;;
7255;SDS011;3669;49.200;9.242;2024-01-15T09:05:44;22.03;;;17.47;;
7255;SDS011;3669;49.200;9.242;2024-01-15T09:08:11;23.50;;;18.13;;
7255;SDS011;3669;49.200;9.242;2024-01-15T09:10:38;21.70;;;17.13;;
7255;SDS011;3669;49.200;9.242;2024-01-15T09:13:05;23.43;;;17.97;;
7255;SDS011;3669;49.200;9.242;2024-01-15T09:15:32;22.80;;;16.37;;
7255;SDS011;3669;49.200;9.242;2024-01-15T09:17:59;22.53;;;16.50;;
7255;SDS011;3669;49.200;9.242;2024-01-15T09:20:28;22.50;;;16.60;;
7255;SDS011;3669;49.200;9.242;2024-01-15T09:22:55;24.03;;;16.90;;
7255;SDS011;3669;49.200;9.242;2024-01-15T09:25:22;23.73;;;18.50;;
7255;SDS011;3669;49.200;9.242;2024-01-15T09:27:49;22.63;;;17.20;;
7255;SDS011;3669;49.200;9.242;2024-01-15T09:30:16;24.13;;;18.00;;
7255;SDS011;3669;49.200;9.242;2024-01-15T09:32:43;22.00;;;16.87;;
7255;SDS011;3669;49.200;9.242;2024-01-15T09:35:10;23.70;;;17.27;;
7255;SDS011;3669;49.200;9.242;2024-01-15T09:37:38;24.00;;;16.97;;
7255;SDS011;3669;49.200;9.242;2024-01-15T09:40:05;19.67;;;16.77;;
7255;SDS011;3669;49.200;9.242;2024-01-15T09:42:32;21.30;;;17.30;;
7255;SDS011;3669;49.200;9.242;2024-01-15T09:45:00;22.00;;;16.87;;
7255;SDS011;3669;49.200;9.242;2024-01-15T09:47:29;22.23;;;16.93;;
7255;SDS011;3669;49.200;9.242;2024-01-15T09:49:56;19.60;;;16.43;;
7255;SDS011;3669;49.200;9.242;2024-01-15T09:52:23;20.93;;;16.10;;
7255;SDS011;3669;49.200;9.242;2024-01-15T09:54:51;20.20;;;15.80;;
7255;SDS011;3669;49.200;9.242;2024-01-15T09:57:18;20.63;;;15.37;;
7255;SDS011;3669;49.200;9.242;2024-01-15T09:59:46;19.53;;;15.17;;
7255;SDS011;3669;49.200;9.242;2024-01-15T10:02:14;19.10;;;15.80;;
7255;SDS011;3669;49.200;9.242;2024-01-15T10:04:44;19.07;;;14.10;;
7255;SDS011;3669;49.200;9.242;2024-01-15T10:07:14;20.73;;;14.97;;
7255;SDS011;3669;49.200;9.242;2024-01-15T10:09:46;18.13;;;14.17;;
7255;SDS011;3669;49.200;9.242;2024-01-15T10:12:13;16.03;;;13.03;;
7255;SDS011;3669;49.200;9.242;2024-01-15T10:14:40;17.97;;;12.97;;
7255;SDS011;3669;49.200;9.242;2024-01-15T10:17:12;16.63;;;13.67;;
7255;SDS011;3669;49.200;9.242;2024-01-15T10:19:40;17.80;;;13.23;;
7255;SDS011;3669;49.200;9.242;2024-01-15T10:22:08;16.77;;;12.97;;
7255;SDS011;3669;49.200;9.242;2024-01-15T10:24:38;32.77;;;29.97;;
7255;SDS011;3669;49.200;9.242;2024-01-15T10:27:10;28.27;;;25.27;;
7255;SDS011;3669;49.200;9.242;2024-01-15T10:29:37;30.77;;;27.93;;
7255;SDS011;3669;49.200;9.242;2024-01-15T10:32:08;35.33;;;32.53;;
7255;SDS011;3669;49.200;9.242;2024-01-15T10:34:39;28.67;;;26.23;;
7255;SDS011;3669;49.200;9.242;2024-01-15T10:37:07;36.80;;;34.03;;
7255;SDS011;3669;49.200;9.242;2024-01-15T10:39:34;44.10;;;41.00;;
7255;SDS011;3669;49.200;9.242;2024-01-15T10:42:02;37.47;;;34.67;;
7255;SDS011;3669;49.200;9.242;2024-01-15T10:44:30;28.67;;;26.23;;
7255;SDS011;3669;49.200;9.242;2024-01-15T10:46:56;21.47;;;19.43;;
7255;SDS011;3669;49.200;9.242;2024-01-15T10:49:24;17.33;;;12.73;;
7255;SDS011;3669;49.200;9.242;2024-01-15T10:51:54;18.03;;;13.80;;
7255;SDS011;3669;49.200;9.242;2024-01-15T10:54:22;15.80;;;12.73;;
7255;SDS011;3669;49.200;9.242;2024-01-15T10:56:50;17.57;;;13.77;;
7255;SDS011;3669;49.200;9.242;2024-01-15T10:59:18;17.10;;;13.40;;
7255;SDS011;3669;49.200;9.242;2024-01-15T11:01:48;17.50;;;13.33;;
7255;SDS011;3669;49.200;9.242;2024-01-15T11:04:16;14.90;;;12.27;;
7255;SDS011;3669;49.200;9.242;2024-01-15T11:07:03;15.33;;;13.63;;
7255;SDS011;3669;49.200;9.242;2024-01-15T11:09:32;15.40;;;13.03;;
7255;SDS011;3669;49.200;9.242;2024-01-15T11:14:44;14.23;;;11.50;;
7255;SDS011;3669;49.200;9.242;2024-01-15T11:17:12;15.67;;;13.37;;
7255;SDS011;3669;49.200;9.242;2024-01-15T11:19:49;16.67;;;13.40;;
7255;SDS011;3669;49.200;9.242;2024-01-15T11:25:14;15.13;;;12.17;;
7255;SDS011;3669;49.200;9.242;2024-01-15T11:27:43;15.47;;;12.30;;
7255;SDS011;3669;49.200;9.242;2024-01-15T11:30:13;17.57;;;14.83;;
7255;SDS011;3669;49.200;9.242;2024-01-15T11:32:41;13.73;;;12.23;;
7255;SDS011;3669;49.200;9.242;2024-01-15T11:35:09;16.17;;;13.30;;
7255;SDS011;3669;49.200;9.242;2024-01-15T11:40:39;23.37;;;21.23;;
7255;SDS011;3669;49.200;9.242;2024-01-15T11:43:08;15.47;;;13.53;;
7255;SDS011;3669;49.200;9.242;2024-01-15T11:45:35;15.53;;;12.07;;
7255;SDS011;3669;49.200;9.242;2024-01-15T11:48:13;16.17;;;13.03;;
7255;SDS011;3669;49.200;9.242;2024-01-15T11:50:41;16.33;;;12.80;;
7255;SDS011;3669;49.200;9.242;2024-01-15T11:55:48;16.53;;;12.97;;
7255;SDS011;3669;49.200;9.242;2024-01-15T11:58:17;15.40;;;11.87;;
7255;SDS011;3669;49.200;9.242;2024-01-15T12:00:47;14.43;;;11.63;;
7255;SDS011;3669;49.200;9.242;2024-01-15T12:03:15;14.57;;;12.90;;
7255;SDS011;3669;49.200;9.242;2024-01-15T12:05:42;15.80;;;13.20;;
7255;SDS011;3669;49.200;9.242;2024-01-15T12:08:09;14.40;;;12.90;;
7255;SDS011;3669;49.200;9.242;2024-01-15T12:10:37;16.47;;;13.17;;
7255;SDS011;3669;49.200;9.242;2024-01-15T12:15:33;16.43;;;12.73;;
7255;SDS011;3669;49.200;9.242;2024-01-15T12:18:01;14.67;;;11.83;;
7255;SDS011;3669;49.200;9.242;2024-01-15T12:20:31;15.37;;;11.97;;
7255;SDS011;3669;49.200;9.242;2024-01-15T12:23:00;14.10;;;11.57;;
7255;SDS011;3669;49.200;9.242;2024-01-15T12:25:29;15.13;;;12.60;;
7255;SDS011;3669;49.200;9.242;2024-01-15T12:27:56;16.97;;;12.87;;
7255;SDS011;3669;49.200;9.242;2024-01-15T12:30:23;16.23;;;12.87;;
7255;SDS011;3669;49.200;9.242;2024-01-15T12:32:50;14.10;;;11.80;;
7255;SDS011;3669;49.200;9.242;2024-01-15T12:35:18;15.20;;;12.50;;
7255;SDS011;3669;49.200;9.242;2024-01-15T12:37:45;13.50;;;12.10;;
7255;SDS011;3669;49.200;9.242;2024-01-15T12:40:12;14.60;;;11.80;;
7255;SDS011;3669;49.200;9.242;2024-01-15T12:42:40;13.00;;;11.70;;
7255;SDS011;3669;49.200;9.242;2024-01-15T12:45:08;13.77;;;12.00;;
7255;SDS011;3669;49.200;9.242;2024-01-15T12:47:36;12.73;;;10.87;;
7255;SDS011;3669;49.200;9.242;2024-01-15T12:50:06;14.23;;;12.32;;
7255;SDS011;3669;49.200;9.242;2024-01-15T12:52:33;25.83;;;23.67;;
7255;SDS011;3669;49.200;9.242;2024-01-15T12:55:01;13.93;;;11.63;;
7255;SDS011;3669;49.200;9.242;2024-01-15T12:57:31;13.03;;;11.67;;
7255;SDS011;3669;49.200;9.242;2024-01-15T12:59:58;13.00;;;11.70;;
7255;SDS011;3669;49.200;9.242;2024-01-15T13:02:25;13.97;;;12.13;;
7255;SDS011;3669;49.200;9.242;2024-01-15T13:04:52;13.17;;;11.77;;
7255;SDS011;3669;49.200;9.242;2024-01-15T13:07:20;12.50;;;11.20;;
7255;SDS011;3669;49.200;9.242;2024-01-15T13:09:47;21.20;;;19.17;;
7255;SDS011;3669;49.200;9.242;2024-01-15T13:12:20;21.70;;;19.83;;
7255;SDS011;3669;49.200;9.242;2024-01-15T13:14:48;25.07;;;23.13;;
7255;SDS011;3669;49.200;9.242;2024-01-15T13:17:15;28.67;;;26.60;;
7255;SDS011;3669;49.200;9.242;2024-01-15T13:19:42;27.13;;;25.23;;
7255;SDS011;3669;49.200;9.242;2024-01-15T13:22:09;36.20;;;34.00;;
7255;SDS011;3669;49.200;9.242;2024-01-15T13:24:39;37.33;;;34.73;;
7255;SDS011;3669;49.200;9.242;2024-01-15T13:27:06;32.47;;;30.30;;
7255;SDS011;3669;49.200;9.242;2024-01-15T13:29:33;20.57;;;18.77;;
7255;SDS011;3669;49.200;9.242;2024-01-15T13:32:00;13.50;;;12.13;;
7255;SDS011;3669;49.200;9.242;2024-01-15T13:34:28;12.33;;;10.97;;
7255;SDS011;3669;49.200;9.242;2024-01-15T13:36:55;13.10;;;11.27;;
7255;SDS011;3669;49.200;9.242;2024-01-15T13:39:23;13.40;;;11.87;;
7255;SDS011;3669;49.200;9.242;2024-01-15T13:41:50;13.15;;;11.77;;
7255;SDS011;3669;49.200;9.242;2024-01-15T13:44:17;13.63;;;11.87;;
7255;SDS011;3669;49.200;9.242;2024-01-15T13:46:45;13.03;;;11.63;;
7255;SDS011;3669;49.200;9.242;2024-01-15T13:49:12;12.23;;;11.03;;
7255;SDS011;3669;49.200;9.242;2024-01-15T13:51:40;14.53;;;11.63;;
7255;SDS011;3669;49.200;9.242;2024-01-15T13:54:07;12.37;;;11.07;;
7255;SDS011;3669;49.200;9.242;2024-01-15T13:56:34;12.80;;;11.43;;
7255;SDS011;3669;49.200;9.242;2024-01-15T13:59:01;12.27;;;10.80;;
7255;SDS011;3669;49.200;9.242;2024-01-15T14:01:30;11.37;;;10.23;;
7255;SDS011;3669;49.200;9.242;2024-01-15T14:03:57;11.83;;;10.60;;
7255;SDS011;3669;49.200;9.242;2024-01-15T14:06:24;12.37;;;11.07;;
7255;SDS011;3669;49.200;9.242;2024-01-15T14:08:51;14.33;;;11.70;;
7255;SDS011;3669;49.200;9.242;2024-01-15T14:11:18;11.97;;;10.77;;
7255;SDS011;3669;49.200;9.242;2024-01-15T14:13:45;12.80;;;11.60;;
7255;SDS011;3669;49.200;9.242;2024-01-15T14:16:13;13.33;;;10.93;;
7255;SDS011;3669;49.200;9.242;2024-01-15T14:18:40;11.97;;;10.67;;
7255;SDS011;3669;49.200;9.242;2024-01-15T14:21:07;12.47;;;10.53;;
7255;SDS011;3669;49.200;9.242;2024-01-15T14:23:35;12.77;;;11.47;;
7255;SDS011;3669;49.200;9.242;2024-01-15T14:26:02;11.97;;;10.70;;
7255;SDS011;3669;49.200;9.242;2024-01-15T14:28:30;13.03;;;10.60;;
7255;SDS011;3669;49.200;9.242;2024-01-15T14:30:57;12.52;;;11.32;;
7255;SDS011;3669;49.200;9.242;2024-01-15T14:33:26;11.83;;;10.73;;
7255;SDS011;3669;49.200;9.242;2024-01-15T14:35:53;11.73;;;10.57;;
7255;SDS011;3669;49.200;9.242;2024-01-15T14:38:20;11.40;;;10.40;;
7255;SDS011;3669;49.200;9.242;2024-01-15T14:40:47;11.40;;;10.30;;
7255;SDS011;3669;49.200;9.242;2024-01-15T14:43:15;12.50;;;11.30;;
7255;SDS011;3669;49.200;9.242;2024-01-15T14:45:42;12.23;;;11.07;;
7255;SDS011;3669;49.200;9.242;2024-01-15T14:48:09;11.13;;;10.10;;
7255;SDS011;3669;49.200;9.242;2024-01-15T14:50:36;11.40;;;10.23;;
7255;SDS011;3669;49.200;9.242;2024-01-15T14:53:03;11.33;;;10.17;;
7255;SDS011;3669;49.200;9.242;2024-01-15T14:55:30;12.57;;;11.33;;
7255;SDS011;3669;49.200;9.242;2024-01-15T14:57:58;11.67;;;10.47;;
7255;SDS011;3669;49.200;9.242;2024-01-15T15:00:25;12.20;;;11.10;;
7255;SDS011;3669;49.200;9.242;2024-01-15T15:02:52;10.97;;;10.07;;